Crescent City, FL (32112)

17:22 EST le 29 janvier 2015 (GMT -0500)
South end of Crescent Lake | Change Station
CLOSE
Current Station
Stations météorologiques personnelles
Location: Crescent City, FL
Altitude: 16 ft
Stations météo à proximité

Alt. 16 ft 29.39 °N, 81.47 °W | Updated 2 minutes ago

Ciel dégagé
Ciel dégagé
69.0 ° F
Paraît 69.0 ° F
N
0.0
Vent Variable Vent de ONO
Gusts 1.0 mph

Aujourd'hui
Haut(e) -- | Bas -- ° F
--% Risque de précip.
Hier
Haut(e) -- | Bas -- ° F
Precip. -- pouce
7:17 AM 6:01 PM
Lune gibbeuse croissante, 77% visible
Pression 30.23 pouce
Visibilité 10.0 Miles terrestres
Nuages Ciel dégagé
Point de rosée 51 ° F
Humidité 52%
Précipitations 0.00 pouce
Profondeur de la couche neigeuse Non disponible.
UV 1 sur 12
Pollen 7.90 sur 12
Qualité de l'air Non disponible.
Flu Activity Non disponible.
METAR KOMN 292150Z 11008KT 10SM SKC 18/10 A3023

More Conditions Fewer Conditions

Pression 30.23 pouce
Visibilité 10.0 Miles terrestres
Nuages Ciel dégagé
Point de rosée 51 ° F
Humidité 52%
Précipitations 0.00 pouce
Profondeur de la couche neigeuse Non disponible.
UV 1 sur 12
Pollen 7.90 sur 12
Qualité de l'air Non disponible.
Flu Activity Non disponible.
METAR KOMN 292150Z 11008KT 10SM SKC 18/10 A3023

More Conditions Fewer Conditions

10-Day Weather Forecast

Almanac

Astronomie

Jan. 29, 2015 Lever Coucher
Temps réel
Crépuscule civil
Crépuscule nautique
Crépuscule astronomique
Lune
Durée de lumière visible
Longueur du jour
Tomorrow will be .
, % of the Moon is Illuminated

Extrêmes aujourd'hui

State Highs State Lows

Community

WunderPhotos

Upload Photos

1,791,629 Photos téléchargées !

WunderBlogs® & News

Nearby

Qualité de l'air

  Qualité de l'air Indice de la qualité de l'air Polluant
Not available.

Épaisseur de neige

Station Depth Altitude

Activité sismique

Ville Distance Mag. Time & Date
Minimum magnitude displayed is 2.5.

Températures des eaux côtières

Lieu Température

Stations météo à proximité